Portada
METAR-TAF:

METAR-TAF

Aeropuertos :

Pekín, China

Aeropuerto Internacional de Pekín-Capital

latitud: 39-56N, longitud: 116-17E, altitud: 55 m

Observación

El informe se hizo hace 18 minutos, a las 04:30 UTC
Viento 8 kt del norte-noreste
Temperatura 21°C
Humedad 83%
Presión 1007 hPa
Visibilidad 10 km o más
Cielo nuboso a una altura de 600 ft
Cielo cubierto a una altura de 4000 ft

METAR: ZBAA 260430Z 02004MPS 9999 BKN006 OVC040 21/18 Q1007 NOSIG

Hora: 12:48 (04:48 UTC)

Pronóstico

El informe se hizo hace 7 horas y 28 minutos, a las 21:20 UTC
Pronóstico válido del 26 a las 00 UTC al 26 a las 24 UTC
Viento 8 kt del este-sureste
Visibilidad: 5000 m
chaparrones de lluvia, neblina
Temporalmente
del 26 a las 02 UTC al 26 a las 06 UTC
Escasas nubes a una altura de 4000 ft, Cumulonimbus.
Cielo nuboso a una altura de 4000 ft
tormenta, lluvia ligera

TAF: ZBAA 252120Z 2600/2624 12004MPS 5000 -SHRA BR NSC TX25/2607Z TN20/2621Z TEMPO 2602/2606 -TSRA FEW040CB BKN040

Observaciones y pronósticos meteorológicos de más de 4000 aeropuertos (mensajes METAR y TAF).

Los puntos amarillos y rojos representan las estaciones disponibles.

Ponga el ratón en el punto deseado para ver el nombre de la estación.

Haga clic para ver las observaciones y los pronósticos meteorológicos.

Para cambiar el mapa : haga clic en los botones verdes con una cruz de color negro para hacer un zoom, en el botón verde con un guión para alejar o en las flechas verdes para mapas adyacentes.


METAR-TAF: